sensor_id;sensor_type;location;lat;lon;timestamp;pressure;altitude;pressure_sealevel;temperature;humidity
81905;BME280;71370;-33.792;151.032;2024-03-08T00:00:51;101947.16;;;26.75;61.20
81905;BME280;71370;-33.792;151.032;2024-03-08T00:01:58;101946.20;;;26.79;61.30
81905;BME280;71370;-33.792;151.032;2024-03-08T00:03:05;101943.20;;;26.84;61.40
81905;BME280;71370;-33.792;151.032;2024-03-08T00:04:12;101941.92;;;26.87;61.70
81905;BME280;71370;-33.792;151.032;2024-03-08T00:05:21;101940.04;;;26.91;60.72
81905;BME280;71370;-33.792;151.032;2024-03-08T00:06:29;101940.73;;;26.91;60.76
81905;BME280;71370;-33.792;151.032;2024-03-08T00:07:37;101940.99;;;26.90;61.11
81905;BME280;71370;-33.792;151.032;2024-03-08T00:08:45;101939.38;;;26.90;60.85
81905;BME280;71370;-33.792;151.032;2024-03-08T00:09:52;101941.90;;;26.90;60.60
81905;BME280;71370;-33.792;151.032;2024-03-08T00:10:59;101941.97;;;26.89;60.53
81905;BME280;71370;-33.792;151.032;2024-03-08T00:12:06;101938.23;;;26.89;60.74
81905;BME280;71370;-33.792;151.032;2024-03-08T00:13:14;101939.86;;;26.88;59.96
81905;BME280;71370;-33.792;151.032;2024-03-08T00:14:21;101942.21;;;26.88;60.00
81905;BME280;71370;-33.792;151.032;2024-03-08T00:15:28;101939.13;;;26.88;60.10
81905;BME280;71370;-33.792;151.032;2024-03-08T00:16:35;101942.57;;;26.88;60.20
81905;BME280;71370;-33.792;151.032;2024-03-08T00:17:44;101944.51;;;26.86;60.15
81905;BME280;71370;-33.792;151.032;2024-03-08T00:18:52;101949.84;;;26.85;60.12
81905;BME280;71370;-33.792;151.032;2024-03-08T00:19:59;101948.30;;;26.83;60.31
81905;BME280;71370;-33.792;151.032;2024-03-08T00:21:06;101948.55;;;26.82;60.25
81905;BME280;71370;-33.792;151.032;2024-03-08T00:22:15;101944.86;;;26.80;60.15
81905;BME280;71370;-33.792;151.032;2024-03-08T00:23:23;101941.45;;;26.80;60.13
81905;BME280;71370;-33.792;151.032;2024-03-08T00:24:30;101938.55;;;26.80;60.24
81905;BME280;71370;-33.792;151.032;2024-03-08T00:25:37;101940.92;;;26.80;60.06
81905;BME280;71370;-33.792;151.032;2024-03-08T00:26:45;101940.59;;;26.79;60.31
81905;BME280;71370;-33.792;151.032;2024-03-08T00:27:52;101939.67;;;26.79;60.55
81905;BME280;71370;-33.792;151.032;2024-03-08T00:29:02;101938.08;;;26.79;60.28
81905;BME280;71370;-33.792;151.032;2024-03-08T00:30:10;101940.17;;;26.80;60.19
81905;BME280;71370;-33.792;151.032;2024-03-08T00:31:19;101936.21;;;26.80;59.80
81905;BME280;71370;-33.792;151.032;2024-03-08T00:32:27;101932.10;;;26.79;59.48
81905;BME280;71370;-33.792;151.032;2024-03-08T00:33:34;101930.63;;;26.80;59.61
81905;BME280;71370;-33.792;151.032;2024-03-08T00:34:41;101932.92;;;26.84;59.76
81905;BME280;71370;-33.792;151.032;2024-03-08T00:35:49;101929.16;;;26.86;59.74
81905;BME280;71370;-33.792;151.032;2024-03-08T00:36:56;101927.70;;;26.92;60.03
81905;BME280;71370;-33.792;151.032;2024-03-08T00:38:04;101925.72;;;26.98;59.28
81905;BME280;71370;-33.792;151.032;2024-03-08T00:39:12;101925.63;;;27.02;58.48
81905;BME280;71370;-33.792;151.032;2024-03-08T00:40:19;101923.95;;;27.03;58.71
81905;BME280;71370;-33.792;151.032;2024-03-08T00:41:27;101921.88;;;27.01;58.66
81905;BME280;71370;-33.792;151.032;2024-03-08T00:42:34;101916.54;;;27.00;58.68
81905;BME280;71370;-33.792;151.032;2024-03-08T00:43:41;101921.07;;;27.00;58.18
81905;BME280;71370;-33.792;151.032;2024-03-08T00:44:48;101920.08;;;26.98;57.64
81905;BME280;71370;-33.792;151.032;2024-03-08T00:45:57;101918.73;;;26.97;57.75
81905;BME280;71370;-33.792;151.032;2024-03-08T00:47:04;101917.45;;;26.97;57.83
81905;BME280;71370;-33.792;151.032;2024-03-08T00:48:11;101915.46;;;26.97;58.04
81905;BME280;71370;-33.792;151.032;2024-03-08T00:49:19;101912.21;;;26.97;58.32
81905;BME280;71370;-33.792;151.032;2024-03-08T00:50:26;101916.93;;;26.97;58.46
81905;BME280;71370;-33.792;151.032;2024-03-08T00:51:33;101911.02;;;26.96;58.72
81905;BME280;71370;-33.792;151.032;2024-03-08T00:52:41;101910.85;;;26.96;58.52
81905;BME280;71370;-33.792;151.032;2024-03-08T00:53:48;101910.04;;;26.94;58.28
81905;BME280;71370;-33.792;151.032;2024-03-08T00:54:56;101913.30;;;26.92;58.05
81905;BME280;71370;-33.792;151.032;2024-03-08T00:56:03;101913.45;;;26.89;58.23
81905;BME280;71370;-33.792;151.032;2024-03-08T00:57:11;101912.09;;;26.88;58.28
81905;BME280;71370;-33.792;151.032;2024-03-08T00:58:18;101910.88;;;26.87;58.17
81905;BME280;71370;-33.792;151.032;2024-03-08T00:59:26;101909.02;;;26.88;58.32
81905;BME280;71370;-33.792;151.032;2024-03-08T01:00:33;101907.52;;;26.89;58.25
81905;BME280;71370;-33.792;151.032;2024-03-08T01:01:41;101902.62;;;26.89;57.97
81905;BME280;71370;-33.792;151.032;2024-03-08T01:02:48;101896.08;;;26.93;58.19
81905;BME280;71370;-33.792;151.032;2024-03-08T01:03:55;101898.70;;;26.97;58.46
81905;BME280;71370;-33.792;151.032;2024-03-08T01:05:03;101890.52;;;27.04;57.68
81905;BME280;71370;-33.792;151.032;2024-03-08T01:06:13;101887.99;;;27.09;57.42
81905;BME280;71370;-33.792;151.032;2024-03-08T01:07:21;101888.63;;;27.13;56.94
81905;BME280;71370;-33.792;151.032;2024-03-08T01:08:28;101882.35;;;27.21;56.76
81905;BME280;71370;-33.792;151.032;2024-03-08T01:09:35;101888.72;;;27.31;57.14
81905;BME280;71370;-33.792;151.032;2024-03-08T01:10:43;101885.86;;;27.42;56.71
81905;BME280;71370;-33.792;151.032;2024-03-08T01:11:50;101887.77;;;27.51;56.02
81905;BME280;71370;-33.792;151.032;2024-03-08T01:12:57;101887.44;;;27.51;55.85
81905;BME280;71370;-33.792;151.032;2024-03-08T01:14:05;101883.87;;;27.50;55.67
81905;BME280;71370;-33.792;151.032;2024-03-08T01:15:13;101884.95;;;27.50;55.72
81905;BME280;71370;-33.792;151.032;2024-03-08T01:16:20;101878.15;;;27.55;55.91
81905;BME280;71370;-33.792;151.032;2024-03-08T01:17:27;101877.90;;;27.66;55.79
81905;BME280;71370;-33.792;151.032;2024-03-08T01:18:35;101876.75;;;27.78;55.68
81905;BME280;71370;-33.792;151.032;2024-03-08T01:19:42;101872.89;;;27.87;55.18
81905;BME280;71370;-33.792;151.032;2024-03-08T01:20:51;101868.16;;;27.90;54.60
81905;BME280;71370;-33.792;151.032;2024-03-08T01:21:58;101870.33;;;27.93;54.47
81905;BME280;71370;-33.792;151.032;2024-03-08T01:23:05;101869.33;;;27.94;54.52
81905;BME280;71370;-33.792;151.032;2024-03-08T01:24:13;101866.80;;;27.94;54.94
81905;BME280;71370;-33.792;151.032;2024-03-08T01:25:20;101866.60;;;27.95;54.27
81905;BME280;71370;-33.792;151.032;2024-03-08T01:26:27;101867.36;;;28.02;53.67
81905;BME280;71370;-33.792;151.032;2024-03-08T01:27:35;101867.77;;;28.09;53.82
81905;BME280;71370;-33.792;151.032;2024-03-08T01:28:43;101865.67;;;28.18;53.65
81905;BME280;71370;-33.792;151.032;2024-03-08T01:29:50;101861.46;;;28.29;53.73
81905;BME280;71370;-33.792;151.032;2024-03-08T01:30:57;101864.14;;;28.40;53.26
81905;BME280;71370;-33.792;151.032;2024-03-08T01:32:05;101862.34;;;28.45;53.12
81905;BME280;71370;-33.792;151.032;2024-03-08T01:33:12;101863.31;;;28.47;53.15
81905;BME280;71370;-33.792;151.032;2024-03-08T01:34:20;101861.90;;;28.51;52.73
81905;BME280;71370;-33.792;151.032;2024-03-08T01:35:27;101860.70;;;28.61;52.59
81905;BME280;71370;-33.792;151.032;2024-03-08T01:36:34;101862.11;;;28.71;52.47
81905;BME280;71370;-33.792;151.032;2024-03-08T01:37:43;101860.30;;;28.79;52.27
81905;BME280;71370;-33.792;151.032;2024-03-08T01:38:51;101861.83;;;28.85;52.47
81905;BME280;71370;-33.792;151.032;2024-03-08T01:39:58;101859.38;;;28.94;52.25
81905;BME280;71370;-33.792;151.032;2024-03-08T01:41:06;101857.91;;;29.02;51.52
81905;BME280;71370;-33.792;151.032;2024-03-08T01:42:13;101858.83;;;29.04;51.70
81905;BME280;71370;-33.792;151.032;2024-03-08T01:43:25;101858.39;;;29.00;51.55
81905;BME280;71370;-33.792;151.032;2024-03-08T01:44:35;101861.09;;;28.93;51.97
81905;BME280;71370;-33.792;151.032;2024-03-08T01:45:43;101863.19;;;28.86;52.04
81905;BME280;71370;-33.792;151.032;2024-03-08T01:46:51;101867.73;;;28.81;52.21
81905;BME280;71370;-33.792;151.032;2024-03-08T01:48:00;101867.14;;;28.75;52.94
81905;BME280;71370;-33.792;151.032;2024-03-08T01:49:07;101865.81;;;28.70;52.72
81905;BME280;71370;-33.792;151.032;2024-03-08T01:50:14;101867.57;;;28.68;53.36
81905;BME280;71370;-33.792;151.032;2024-03-08T01:51:22;101864.38;;;28.65;53.06
81905;BME280;71370;-33.792;151.032;2024-03-08T01:52:30;101861.80;;;28.61;53.01
81905;BME280;71370;-33.792;151.032;2024-03-08T01:53:38;101856.19;;;28.56;53.20
81905;BME280;71370;-33.792;151.032;2024-03-08T01:54:45;101856.67;;;28.51;53.52
81905;BME280;71370;-33.792;151.032;2024-03-08T01:55:55;101857.80;;;28.48;53.88
81905;BME280;71370;-33.792;151.032;2024-03-08T01:57:04;101854.37;;;28.46;53.68
81905;BME280;71370;-33.792;151.032;2024-03-08T01:58:11;101857.36;;;28.42;53.58
81905;BME280;71370;-33.792;151.032;2024-03-08T01:59:21;101856.66;;;28.39;53.82
81905;BME280;71370;-33.792;151.032;2024-03-08T02:00:29;101854.55;;;28.32;53.72
81905;BME280;71370;-33.792;151.032;2024-03-08T02:01:37;101859.08;;;28.27;54.19
81905;BME280;71370;-33.792;151.032;2024-03-08T02:02:47;101855.57;;;28.21;54.19
81905;BME280;71370;-33.792;151.032;2024-03-08T02:03:57;101857.64;;;28.14;53.99
81905;BME280;71370;-33.792;151.032;2024-03-08T02:05:05;101857.61;;;28.09;54.26
81905;BME280;71370;-33.792;151.032;2024-03-08T02:06:13;101859.59;;;28.05;54.42
81905;BME280;71370;-33.792;151.032;2024-03-08T02:07:23;101853.20;;;28.00;54.65
81905;BME280;71370;-33.792;151.032;2024-03-08T02:08:30;101854.17;;;28.02;54.68
81905;BME280;71370;-33.792;151.032;2024-03-08T02:09:38;101852.48;;;28.08;54.59
81905;BME280;71370;-33.792;151.032;2024-03-08T02:10:45;101851.96;;;28.08;54.87
81905;BME280;71370;-33.792;151.032;2024-03-08T02:11:54;101849.74;;;28.06;55.14
81905;BME280;71370;-33.792;151.032;2024-03-08T02:13:05;101846.23;;;28.04;55.04
81905;BME280;71370;-33.792;151.032;2024-03-08T02:14:12;101848.11;;;28.03;54.90
81905;BME280;71370;-33.792;151.032;2024-03-08T02:15:20;101846.42;;;28.02;55.04
81905;BME280;71370;-33.792;151.032;2024-03-08T02:16:28;101841.80;;;28.03;55.03
81905;BME280;71370;-33.792;151.032;2024-03-08T02:17:35;101838.79;;;28.15;55.13
81905;BME280;71370;-33.792;151.032;2024-03-08T02:18:42;101840.05;;;28.28;54.75
81905;BME280;71370;-33.792;151.032;2024-03-08T02:19:49;101844.25;;;28.32;54.70
81905;BME280;71370;-33.792;151.032;2024-03-08T02:21:00;101839.66;;;28.33;54.37
81905;BME280;71370;-33.792;151.032;2024-03-08T02:22:08;101837.55;;;28.32;54.35
81905;BME280;71370;-33.792;151.032;2024-03-08T02:23:16;101835.05;;;28.32;54.75
81905;BME280;71370;-33.792;151.032;2024-03-08T02:24:23;101832.04;;;28.31;54.86
81905;BME280;71370;-33.792;151.032;2024-03-08T02:25:32;101831.83;;;28.31;55.07
81905;BME280;71370;-33.792;151.032;2024-03-08T02:26:39;101832.36;;;28.31;54.84
81905;BME280;71370;-33.792;151.032;2024-03-08T02:27:46;101830.33;;;28.32;54.62
81905;BME280;71370;-33.792;151.032;2024-03-08T02:28:53;101829.60;;;28.40;54.67
81905;BME280;71370;-33.792;151.032;2024-03-08T02:30:00;101825.20;;;28.51;54.26
81905;BME280;71370;-33.792;151.032;2024-03-08T02:31:08;101825.42;;;28.53;54.14
81905;BME280;71370;-33.792;151.032;2024-03-08T02:32:15;101823.08;;;28.53;54.27
81905;BME280;71370;-33.792;151.032;2024-03-08T02:33:23;101825.58;;;28.54;54.30
81905;BME280;71370;-33.792;151.032;2024-03-08T02:34:31;101821.21;;;28.54;53.63
81905;BME280;71370;-33.792;151.032;2024-03-08T02:35:39;101824.73;;;28.53;54.31
81905;BME280;71370;-33.792;151.032;2024-03-08T02:36:46;101813.56;;;28.54;54.65
81905;BME280;71370;-33.792;151.032;2024-03-08T02:37:53;101814.16;;;28.64;54.32
81905;BME280;71370;-33.792;151.032;2024-03-08T02:39:03;101812.92;;;28.76;54.00
81905;BME280;71370;-33.792;151.032;2024-03-08T02:40:12;101812.40;;;28.93;53.79
81905;BME280;71370;-33.792;151.032;2024-03-08T02:41:19;101806.84;;;29.09;53.54
81905;BME280;71370;-33.792;151.032;2024-03-08T02:42:26;101807.30;;;29.25;53.02
81905;BME280;71370;-33.792;151.032;2024-03-08T02:43:34;101807.21;;;29.40;52.71
81905;BME280;71370;-33.792;151.032;2024-03-08T02:44:44;101808.23;;;29.56;51.78
81905;BME280;71370;-33.792;151.032;2024-03-08T02:45:51;101803.30;;;29.68;50.60
81905;BME280;71370;-33.792;151.032;2024-03-08T02:47:01;101800.03;;;29.78;50.57
81905;BME280;71370;-33.792;151.032;2024-03-08T02:48:09;101798.59;;;29.87;50.13
81905;BME280;71370;-33.792;151.032;2024-03-08T02:49:16;101796.92;;;29.97;50.29
81905;BME280;71370;-33.792;151.032;2024-03-08T02:50:23;101791.64;;;30.06;49.56
81905;BME280;71370;-33.792;151.032;2024-03-08T02:51:31;101792.21;;;30.15;49.43
81905;BME280;71370;-33.792;151.032;2024-03-08T02:52:41;101795.10;;;30.24;48.91
81905;BME280;71370;-33.792;151.032;2024-03-08T02:53:49;101796.63;;;30.33;48.68
81905;BME280;71370;-33.792;151.032;2024-03-08T02:54:58;101793.14;;;30.40;48.37
81905;BME280;71370;-33.792;151.032;2024-03-08T02:56:05;101793.98;;;30.47;48.20
81905;BME280;71370;-33.792;151.032;2024-03-08T02:57:17;101785.58;;;30.55;48.08
81905;BME280;71370;-33.792;151.032;2024-03-08T02:58:24;101784.67;;;30.63;48.58
81905;BME280;71370;-33.792;151.032;2024-03-08T02:59:32;101780.33;;;30.72;48.53
81905;BME280;71370;-33.792;151.032;2024-03-08T03:00:39;101780.23;;;30.82;48.03
81905;BME280;71370;-33.792;151.032;2024-03-08T03:01:47;101780.80;;;30.91;47.97
81905;BME280;71370;-33.792;151.032;2024-03-08T03:02:54;101783.78;;;30.97;47.87
81905;BME280;71370;-33.792;151.032;2024-03-08T03:04:01;101779.92;;;30.93;48.08
81905;BME280;71370;-33.792;151.032;2024-03-08T03:05:09;101780.55;;;30.87;48.24
81905;BME280;71370;-33.792;151.032;2024-03-08T03:06:17;101781.18;;;30.80;48.48
81905;BME280;71370;-33.792;151.032;2024-03-08T03:07:27;101772.39;;;30.80;48.53
81905;BME280;71370;-33.792;151.032;2024-03-08T03:08:34;101767.71;;;30.86;48.37
81905;BME280;71370;-33.792;151.032;2024-03-08T03:09:41;101769.98;;;30.90;48.76
81905;BME280;71370;-33.792;151.032;2024-03-08T03:10:49;101768.52;;;30.99;48.22
81905;BME280;71370;-33.792;151.032;2024-03-08T03:11:56;101767.17;;;31.06;47.55
81905;BME280;71370;-33.792;151.032;2024-03-08T03:13:04;101763.41;;;31.10;46.93
81905;BME280;71370;-33.792;151.032;2024-03-08T03:14:11;101764.82;;;31.13;46.75
81905;BME280;71370;-33.792;151.032;2024-03-08T03:15:19;101762.61;;;31.13;46.46
81905;BME280;71370;-33.792;151.032;2024-03-08T03:16:27;101761.06;;;31.14;46.95
81905;BME280;71370;-33.792;151.032;2024-03-08T03:17:34;101762.91;;;31.18;47.12
81905;BME280;71370;-33.792;151.032;2024-03-08T03:18:41;101759.26;;;31.25;46.83
81905;BME280;71370;-33.792;151.032;2024-03-08T03:19:49;101758.30;;;31.32;46.81
81905;BME280;71370;-33.792;151.032;2024-03-08T03:20:56;101760.28;;;31.40;46.68
81905;BME280;71370;-33.792;151.032;2024-03-08T03:22:03;101762.81;;;31.49;46.68
81905;BME280;71370;-33.792;151.032;2024-03-08T03:23:12;101762.99;;;31.48;46.73
81905;BME280;71370;-33.792;151.032;2024-03-08T03:24:20;101762.52;;;31.42;46.96
81905;BME280;71370;-33.792;151.032;2024-03-08T03:25:28;101761.95;;;31.36;46.88
81905;BME280;71370;-33.792;151.032;2024-03-08T03:26:47;101758.70;;;31.33;46.81
81905;BME280;71370;-33.792;151.032;2024-03-08T03:27:55;101755.23;;;31.40;46.54
81905;BME280;71370;-33.792;151.032;2024-03-08T03:29:02;101754.98;;;31.45;46.02
81905;BME280;71370;-33.792;151.032;2024-03-08T03:30:12;101751.04;;;31.40;45.50
81905;BME280;71370;-33.792;151.032;2024-03-08T03:31:28;101750.02;;;31.29;45.27
81905;BME280;71370;-33.792;151.032;2024-03-08T03:32:36;101748.81;;;31.15;45.42
81905;BME280;71370;-33.792;151.032;2024-03-08T03:33:53;101746.45;;;31.09;45.92
81905;BME280;71370;-33.792;151.032;2024-03-08T03:35:00;101748.07;;;31.13;45.63
81905;BME280;71370;-33.792;151.032;2024-03-08T03:36:11;101745.81;;;31.14;45.99
81905;BME280;71370;-33.792;151.032;2024-03-08T03:37:20;101740.50;;;31.15;46.79
81905;BME280;71370;-33.792;151.032;2024-03-08T03:38:27;101741.92;;;31.17;46.12
81905;BME280;71370;-33.792;151.032;2024-03-08T03:39:34;101735.55;;;31.11;45.97
81905;BME280;71370;-33.792;151.032;2024-03-08T03:40:46;101737.02;;;31.04;45.62
81905;BME280;71370;-33.792;151.032;2024-03-08T03:41:54;101734.74;;;31.07;45.57
81905;BME280;71370;-33.792;151.032;2024-03-08T03:43:03;101732.22;;;31.10;45.81
81905;BME280;71370;-33.792;151.032;2024-03-08T03:44:10;101728.21;;;31.14;45.80
81905;BME280;71370;-33.792;151.032;2024-03-08T03:45:17;101732.76;;;31.22;46.27
81905;BME280;71370;-33.792;151.032;2024-03-08T03:46:26;101732.22;;;31.33;46.36
81905;BME280;71370;-33.792;151.032;2024-03-08T03:47:33;101732.77;;;31.43;45.75
81905;BME280;71370;-33.792;151.032;2024-03-08T03:48:40;101731.34;;;31.48;45.68
81905;BME280;71370;-33.792;151.032;2024-03-08T03:49:48;101731.36;;;31.56;45.22
81905;BME280;71370;-33.792;151.032;2024-03-08T03:50:56;101730.17;;;31.63;45.54
81905;BME280;71370;-33.792;151.032;2024-03-08T03:52:03;101727.30;;;31.71;45.85
81905;BME280;71370;-33.792;151.032;2024-03-08T03:53:11;101729.86;;;31.79;45.56
81905;BME280;71370;-33.792;151.032;2024-03-08T03:54:19;101727.48;;;31.86;44.08
81905;BME280;71370;-33.792;151.032;2024-03-08T03:55:27;101722.73;;;31.90;44.45
81905;BME280;71370;-33.792;151.032;2024-03-08T03:56:35;101726.46;;;31.95;44.81
81905;BME280;71370;-33.792;151.032;2024-03-08T03:57:42;101721.98;;;31.98;43.34
81905;BME280;71370;-33.792;151.032;2024-03-08T03:58:52;101723.83;;;32.00;43.65
81905;BME280;71370;-33.792;151.032;2024-03-08T03:59:59;101716.27;;;32.01;43.03
81905;BME280;71370;-33.792;151.032;2024-03-08T04:01:06;101720.90;;;32.03;42.81
81905;BME280;71370;-33.792;151.032;2024-03-08T04:02:14;101717.44;;;32.03;42.63
81905;BME280;71370;-33.792;151.032;2024-03-08T04:03:21;101714.76;;;32.02;43.07
81905;BME280;71370;-33.792;151.032;2024-03-08T04:04:28;101717.92;;;32.04;43.18
81905;BME280;71370;-33.792;151.032;2024-03-08T04:05:35;101712.75;;;32.04;42.40
81905;BME280;71370;-33.792;151.032;2024-03-08T04:06:42;101715.48;;;32.06;42.20
81905;BME280;71370;-33.792;151.032;2024-03-08T04:07:51;101714.66;;;32.07;43.15
81905;BME280;71370;-33.792;151.032;2024-03-08T04:08:58;101713.16;;;32.10;42.53
81905;BME280;71370;-33.792;151.032;2024-03-08T04:10:07;101704.69;;;32.09;42.36
81905;BME280;71370;-33.792;151.032;2024-03-08T04:11:14;101707.14;;;32.08;41.94
81905;BME280;71370;-33.792;151.032;2024-03-08T04:12:23;101704.49;;;32.07;42.10
81905;BME280;71370;-33.792;151.032;2024-03-08T04:13:30;101712.83;;;32.08;42.09
81905;BME280;71370;-33.792;151.032;2024-03-08T04:14:40;101707.53;;;32.06;41.75
81905;BME280;71370;-33.792;151.032;2024-03-08T04:15:47;101705.80;;;32.00;41.83
81905;BME280;71370;-33.792;151.032;2024-03-08T04:16:55;101705.61;;;31.94;42.07
81905;BME280;71370;-33.792;151.032;2024-03-08T04:18:03;101705.42;;;31.90;42.08
81905;BME280;71370;-33.792;151.032;2024-03-08T04:19:10;101704.30;;;31.87;42.05
81905;BME280;71370;-33.792;151.032;2024-03-08T04:20:18;101703.21;;;31.83;42.44
81905;BME280;71370;-33.792;151.032;2024-03-08T04:21:25;101705.16;;;31.78;42.95
81905;BME280;71370;-33.792;151.032;2024-03-08T04:22:34;101700.65;;;31.76;41.71
81905;BME280;71370;-33.792;151.032;2024-03-08T04:23:42;101705.45;;;31.73;42.04
81905;BME280;71370;-33.792;151.032;2024-03-08T04:24:51;101702.48;;;31.70;42.29
81905;BME280;71370;-33.792;151.032;2024-03-08T04:25:58;101703.27;;;31.63;42.39
81905;BME280;71370;-33.792;151.032;2024-03-08T04:27:06;101702.85;;;31.55;42.52
81905;BME280;71370;-33.792;151.032;2024-03-08T04:28:13;101702.20;;;31.55;42.85
81905;BME280;71370;-33.792;151.032;2024-03-08T04:29:20;101699.92;;;31.54;42.59
81905;BME280;71370;-33.792;151.032;2024-03-08T04:30:28;101698.96;;;31.52;42.30
81905;BME280;71370;-33.792;151.032;2024-03-08T04:31:36;101701.52;;;31.50;42.41
81905;BME280;71370;-33.792;151.032;2024-03-08T04:32:44;101703.13;;;31.50;42.10
81905;BME280;71370;-33.792;151.032;2024-03-08T04:33:51;101705.21;;;31.49;41.26
81905;BME280;71370;-33.792;151.032;2024-03-08T04:34:58;101703.17;;;31.48;40.92
81905;BME280;71370;-33.792;151.032;2024-03-08T04:36:07;101697.98;;;31.46;40.50
81905;BME280;71370;-33.792;151.032;2024-03-08T04:37:19;101699.52;;;31.43;40.46
81905;BME280;71370;-33.792;151.032;2024-03-08T04:38:30;101701.84;;;31.39;40.27
81905;BME280;71370;-33.792;151.032;2024-03-08T04:39:37;101698.17;;;31.36;40.47
81905;BME280;71370;-33.792;151.032;2024-03-08T04:40:44;101695.04;;;31.32;40.05
81905;BME280;71370;-33.792;151.032;2024-03-08T04:41:52;101698.66;;;31.30;40.20
81905;BME280;71370;-33.792;151.032;2024-03-08T04:43:01;101699.27;;;31.28;39.83
81905;BME280;71370;-33.792;151.032;2024-03-08T04:44:09;101702.85;;;31.26;40.46
81905;BME280;71370;-33.792;151.032;2024-03-08T04:45:17;101699.59;;;31.23;40.37
81905;BME280;71370;-33.792;151.032;2024-03-08T04:46:24;101697.67;;;31.20;40.36
81905;BME280;71370;-33.792;151.032;2024-03-08T04:47:31;101698.88;;;31.16;40.02
81905;BME280;71370;-33.792;151.032;2024-03-08T04:48:38;101701.91;;;31.15;40.75
81905;BME280;71370;-33.792;151.032;2024-03-08T04:49:48;101698.48;;;31.15;40.83
81905;BME280;71370;-33.792;151.032;2024-03-08T04:50:57;101700.85;;;31.15;40.98
81905;BME280;71370;-33.792;151.032;2024-03-08T04:52:04;101696.35;;;31.15;40.48
81905;BME280;71370;-33.792;151.032;2024-03-08T04:53:13;101693.31;;;31.12;40.67
81905;BME280;71370;-33.792;151.032;2024-03-08T04:54:20;101691.48;;;31.10;40.77
81905;BME280;71370;-33.792;151.032;2024-03-08T04:55:27;101695.90;;;31.09;40.92
81905;BME280;71370;-33.792;151.032;2024-03-08T04:56:35;101690.89;;;31.08;40.66
81905;BME280;71370;-33.792;151.032;2024-03-08T04:57:42;101697.13;;;31.08;40.53
81905;BME280;71370;-33.792;151.032;2024-03-08T04:58:52;101690.17;;;31.06;40.27
81905;BME280;71370;-33.792;151.032;2024-03-08T04:59:59;101691.45;;;31.04;39.94
81905;BME280;71370;-33.792;151.032;2024-03-08T05:01:06;101687.65;;;31.01;40.34
81905;BME280;71370;-33.792;151.032;2024-03-08T05:02:16;101689.64;;;31.01;40.35
81905;BME280;71370;-33.792;151.032;2024-03-08T05:03:24;101687.92;;;31.00;40.26
81905;BME280;71370;-33.792;151.032;2024-03-08T05:04:32;101687.26;;;31.00;40.44
81905;BME280;71370;-33.792;151.032;2024-03-08T05:05:40;101692.75;;;30.99;40.28
81905;BME280;71370;-33.792;151.032;2024-03-08T05:06:47;101693.02;;;30.98;40.04
81905;BME280;71370;-33.792;151.032;2024-03-08T05:07:55;101693.83;;;30.97;40.36
81905;BME280;71370;-33.792;151.032;2024-03-08T05:09:02;101695.02;;;30.96;40.20
81905;BME280;71370;-33.792;151.032;2024-03-08T05:10:27;101690.96;;;30.94;39.78
81905;BME280;71370;-33.792;151.032;2024-03-08T05:11:34;101699.84;;;30.93;40.11
81905;BME280;71370;-33.792;151.032;2024-03-08T05:12:42;101698.39;;;30.93;40.25
81905;BME280;71370;-33.792;151.032;2024-03-08T05:13:49;101698.04;;;30.93;40.06
81905;BME280;71370;-33.792;151.032;2024-03-08T05:14:56;101697.54;;;30.92;40.31
81905;BME280;71370;-33.792;151.032;2024-03-08T05:16:04;101696.97;;;30.90;39.22
81905;BME280;71370;-33.792;151.032;2024-03-08T05:17:11;101696.47;;;30.85;39.20
81905;BME280;71370;-33.792;151.032;2024-03-08T05:18:18;101697.65;;;30.79;39.87
81905;BME280;71370;-33.792;151.032;2024-03-08T05:19:25;101694.43;;;30.75;40.21
81905;BME280;71370;-33.792;151.032;2024-03-08T05:20:33;101696.63;;;30.73;40.11
81905;BME280;71370;-33.792;151.032;2024-03-08T05:21:40;101692.98;;;30.68;39.89
81905;BME280;71370;-33.792;151.032;2024-03-08T05:22:47;101700.85;;;30.63;40.29
81905;BME280;71370;-33.792;151.032;2024-03-08T05:23:54;101699.41;;;30.58;40.56
81905;BME280;71370;-33.792;151.032;2024-03-08T05:25:01;101704.52;;;30.56;40.11
81905;BME280;71370;-33.792;151.032;2024-03-08T05:26:08;101699.38;;;30.52;40.07
81905;BME280;71370;-33.792;151.032;2024-03-08T05:27:15;101705.07;;;30.49;40.10
81905;BME280;71370;-33.792;151.032;2024-03-08T05:28:23;101705.13;;;30.46;40.21
81905;BME280;71370;-33.792;151.032;2024-03-08T05:29:31;101701.41;;;30.45;40.16
81905;BME280;71370;-33.792;151.032;2024-03-08T05:30:38;101700.08;;;30.44;40.41
81905;BME280;71370;-33.792;151.032;2024-03-08T05:31:50;101702.17;;;30.40;40.39
81905;BME280;71370;-33.792;151.032;2024-03-08T05:33:01;101704.55;;;30.38;40.50
81905;BME280;71370;-33.792;151.032;2024-03-08T05:34:08;101702.59;;;30.35;40.98
81905;BME280;71370;-33.792;151.032;2024-03-08T05:35:16;101697.21;;;30.35;41.33
81905;BME280;71370;-33.792;151.032;2024-03-08T05:36:23;101703.52;;;30.35;40.98
81905;BME280;71370;-33.792;151.032;2024-03-08T05:37:30;101698.67;;;30.34;41.35
81905;BME280;71370;-33.792;151.032;2024-03-08T05:38:37;101698.24;;;30.35;41.67
81905;BME280;71370;-33.792;151.032;2024-03-08T05:39:45;101698.20;;;30.36;41.38
81905;BME280;71370;-33.792;151.032;2024-03-08T05:40:52;101696.31;;;30.37;41.60
81905;BME280;71370;-33.792;151.032;2024-03-08T05:41:59;101692.30;;;30.37;41.55